createdAt,value
2019-03-28T00:00:09.544Z,7.97
2019-03-28T00:02:39.259Z,7.96
2019-03-28T00:05:08.753Z,7.97
2019-03-28T00:07:38.256Z,7.91
2019-03-28T00:10:07.571Z,7.88
2019-03-28T00:12:36.142Z,7.94
2019-03-28T00:15:06.839Z,7.72
2019-03-28T00:17:35.777Z,7.41
2019-03-28T00:20:06.095Z,7.15
2019-03-28T00:22:36.889Z,7.09
2019-03-28T00:25:07.574Z,7.13
2019-03-28T00:27:36.443Z,7.43
2019-03-28T00:30:07.214Z,7.47
2019-03-28T00:32:36.073Z,7.59
2019-03-28T00:35:06.494Z,7.59
2019-03-28T00:37:36.034Z,7.56
2019-03-28T00:40:08.141Z,7.50
2019-03-28T00:42:36.966Z,7.46
2019-03-28T00:45:07.751Z,7.49
2019-03-28T00:47:36.908Z,7.43
2019-03-28T00:50:08.205Z,7.45
2019-03-28T00:52:37.663Z,7.27
2019-03-28T00:55:07.765Z,7.36
2019-03-28T00:57:36.927Z,7.33
2019-03-28T01:00:07.723Z,7.29
2019-03-28T01:02:36.705Z,7.27
2019-03-28T01:05:06.933Z,7.27
2019-03-28T01:07:36.001Z,7.20
2019-03-28T01:10:05.917Z,7.16
2019-03-28T01:12:34.987Z,7.13
2019-03-28T01:15:05.030Z,7.10
2019-03-28T01:17:34.336Z,7.09
2019-03-28T01:20:03.380Z,7.03
2019-03-28T01:22:31.976Z,7.10
2019-03-28T01:25:01.820Z,7.11
2019-03-28T01:27:31.357Z,7.07
2019-03-28T01:30:00.338Z,7.05
2019-03-28T01:32:29.417Z,7.05
2019-03-28T01:34:58.368Z,7.03
2019-03-28T01:37:27.295Z,7.06
2019-03-28T01:39:56.290Z,7.02
2019-03-28T01:42:25.384Z,6.89
2019-03-28T01:44:54.278Z,6.78
2019-03-28T01:47:23.172Z,6.69
2019-03-28T01:49:52.369Z,6.75
2019-03-28T01:52:21.427Z,6.64
2019-03-28T01:54:50.363Z,6.73
2019-03-28T01:57:19.665Z,6.72
2019-03-28T01:59:48.789Z,6.65
2019-03-28T02:02:17.758Z,6.63
2019-03-28T02:04:46.679Z,6.59
2019-03-28T02:07:16.191Z,6.65
2019-03-28T02:09:44.908Z,6.54
2019-03-28T02:12:13.941Z,6.52
2019-03-28T02:14:42.840Z,6.54
2019-03-28T02:19:58.042Z,6.51
2019-03-28T02:22:27.060Z,6.48
2019-03-28T02:24:56.094Z,6.42
2019-03-28T02:27:25.987Z,6.40
2019-03-28T02:29:54.897Z,6.50
2019-03-28T02:32:23.829Z,6.52
2019-03-28T02:34:52.929Z,6.34
2019-03-28T02:37:22.286Z,6.34
2019-03-28T02:39:51.180Z,6.30
2019-03-28T02:42:20.127Z,6.35
2019-03-28T02:44:49.373Z,6.36
2019-03-28T02:47:18.067Z,6.41
2019-03-28T02:49:47.051Z,6.36
2019-03-28T02:52:15.995Z,6.34
2019-03-28T02:54:45.068Z,6.41
2019-03-28T02:57:14.253Z,6.40
2019-03-28T02:59:43.410Z,6.42
2019-03-28T03:02:12.991Z,6.41
2019-03-28T03:04:43.041Z,6.38
2019-03-28T03:07:12.229Z,6.45
2019-03-28T03:09:41.270Z,6.30
2019-03-28T03:12:10.486Z,6.32
2019-03-28T03:14:39.489Z,6.28
2019-03-28T03:17:08.506Z,6.26
2019-03-28T03:19:37.647Z,6.18
2019-03-28T03:22:06.910Z,6.21
2019-03-28T03:24:35.795Z,6.23
2019-03-28T03:27:05.052Z,6.27
2019-03-28T03:29:34.095Z,6.24
2019-03-28T03:32:03.203Z,6.24
2019-03-28T03:34:33.134Z,6.26
2019-03-28T03:37:03.800Z,6.19
2019-03-28T03:39:33.527Z,6.16
2019-03-28T03:42:02.648Z,6.14
2019-03-28T03:44:31.553Z,6.23
2019-03-28T03:47:00.917Z,6.20
2019-03-28T03:49:30.759Z,6.13
2019-03-28T03:52:00.125Z,6.10
2019-03-28T03:54:29.510Z,6.14
2019-03-28T03:56:58.665Z,6.17
2019-03-28T03:59:27.855Z,6.19
2019-03-28T04:01:57.298Z,6.10
2019-03-28T04:04:26.221Z,6.19
2019-03-28T04:06:55.318Z,6.22
2019-03-28T04:09:24.398Z,6.22
2019-03-28T04:11:53.965Z,6.24
2019-03-28T04:14:22.919Z,6.22
2019-03-28T04:16:52.109Z,6.24
2019-03-28T04:19:21.472Z,6.21
2019-03-28T04:21:50.734Z,6.18
2019-03-28T04:24:19.821Z,6.17
2019-03-28T04:26:49.077Z,6.19
2019-03-28T04:29:18.045Z,6.18
2019-03-28T04:31:47.478Z,6.14
2019-03-28T04:34:17.344Z,6.15
2019-03-28T04:36:46.331Z,6.18
2019-03-28T04:39:16.578Z,6.19
2019-03-28T04:41:46.063Z,6.21
2019-03-28T04:44:15.403Z,6.22
2019-03-28T04:46:45.325Z,6.21
2019-03-28T04:49:15.763Z,6.29
2019-03-28T04:51:45.180Z,6.25
2019-03-28T04:54:15.002Z,6.08
2019-03-28T04:56:44.261Z,6.07
2019-03-28T04:59:13.260Z,6.07
2019-03-28T05:01:42.369Z,6.16
2019-03-28T05:04:11.049Z,6.08
2019-03-28T05:06:40.349Z,6.13
2019-03-28T05:09:09.094Z,6.16
2019-03-28T05:11:38.641Z,6.15
2019-03-28T05:14:07.323Z,6.15
2019-03-28T05:16:36.740Z,6.12
2019-03-28T05:19:05.496Z,6.15
2019-03-28T05:21:34.972Z,6.17
2019-03-28T05:24:03.662Z,6.17
2019-03-28T05:26:33.101Z,6.22
2019-03-28T05:29:01.845Z,6.28
2019-03-28T05:31:30.724Z,6.32
2019-03-28T05:33:59.398Z,6.29
2019-03-28T05:36:27.975Z,6.28
2019-03-28T05:38:56.879Z,6.42
2019-03-28T05:41:26.367Z,6.37
2019-03-28T05:43:55.097Z,6.37
2019-03-28T05:46:25.897Z,6.38
2019-03-28T05:48:55.204Z,6.54
2019-03-28T05:51:23.981Z,6.53
2019-03-28T05:53:53.419Z,6.55
2019-03-28T05:56:22.152Z,6.59
2019-03-28T05:58:51.013Z,6.63
2019-03-28T06:01:19.596Z,6.56
2019-03-28T06:03:48.478Z,6.56
2019-03-28T06:06:18.377Z,6.62
2019-03-28T06:08:48.067Z,6.67
2019-03-28T06:11:16.813Z,6.63
2019-03-28T06:13:46.259Z,6.56
2019-03-28T06:16:14.917Z,6.63
2019-03-28T06:18:44.023Z,6.62
2019-03-28T06:21:13.090Z,6.61
2019-03-28T06:23:42.674Z,6.67
2019-03-28T06:26:11.277Z,6.67
2019-03-28T06:28:40.101Z,6.61
2019-03-28T06:31:08.827Z,6.71
2019-03-28T06:33:38.531Z,6.75
2019-03-28T06:36:08.214Z,6.92
2019-03-28T06:38:37.070Z,6.99
2019-03-28T06:41:05.762Z,7.22
2019-03-28T06:43:34.564Z,7.44
2019-03-28T06:46:04.017Z,7.54
2019-03-28T06:48:32.886Z,7.62
2019-03-28T06:51:02.384Z,7.46
2019-03-28T06:53:31.164Z,7.52
2019-03-28T06:56:00.561Z,7.68
2019-03-28T06:58:29.398Z,7.85
2019-03-28T07:00:58.330Z,7.99
2019-03-28T07:03:27.684Z,8.15
2019-03-28T07:05:56.867Z,8.17
2019-03-28T07:08:25.718Z,8.21
2019-03-28T07:10:57.794Z,8.37
2019-03-28T07:13:25.277Z,8.36
2019-03-28T07:15:53.926Z,8.44
2019-03-28T07:18:23.328Z,8.57
2019-03-28T07:20:52.439Z,8.71
2019-03-28T07:23:22.206Z,8.85
2019-03-28T07:25:51.640Z,8.87
2019-03-28T07:28:20.750Z,9.11
2019-03-28T07:30:49.627Z,9.29
2019-03-28T07:33:18.746Z,9.34
2019-03-28T07:35:47.916Z,9.58
2019-03-28T07:38:16.732Z,9.57
2019-03-28T07:40:45.468Z,9.63
2019-03-28T07:43:14.474Z,9.74
2019-03-28T07:45:43.512Z,9.85
2019-03-28T07:48:12.901Z,10.05
2019-03-28T07:50:42.778Z,9.78
2019-03-28T07:53:11.956Z,9.91
2019-03-28T07:55:40.876Z,9.91
2019-03-28T07:58:09.667Z,9.90
2019-03-28T08:00:38.611Z,10.14
2019-03-28T08:03:07.857Z,10.12
2019-03-28T08:05:36.982Z,10.38
2019-03-28T08:08:05.949Z,10.86
2019-03-28T08:10:34.814Z,11.06
2019-03-28T08:13:04.396Z,11.23
2019-03-28T08:15:33.311Z,11.27
2019-03-28T08:18:02.238Z,10.87
2019-03-28T08:20:31.303Z,11.76
2019-03-28T08:23:00.519Z,11.79
2019-03-28T08:25:29.493Z,12.01
2019-03-28T08:27:58.150Z,12.16
2019-03-28T08:30:35.942Z,12.37
2019-03-28T08:33:06.158Z,12.33
2019-03-28T08:35:36.802Z,12.09
2019-03-28T08:38:09.783Z,13.37
2019-03-28T08:40:40.063Z,13.40
2019-03-28T08:43:09.951Z,12.74
2019-03-28T08:45:39.614Z,13.24
2019-03-28T08:48:08.464Z,14.02
2019-03-28T08:50:37.358Z,14.81
2019-03-28T08:53:06.317Z,14.20
2019-03-28T08:55:34.989Z,17.15
2019-03-28T08:58:04.368Z,16.65
2019-03-28T09:00:50.216Z,19.36
2019-03-28T09:03:03.604Z,17.01
2019-03-28T09:05:33.421Z,16.92
2019-03-28T09:08:02.296Z,19.32
2019-03-28T09:10:31.382Z,19.44
2019-03-28T09:13:00.097Z,18.56
2019-03-28T09:15:42.687Z,18.65
2019-03-28T09:18:00.360Z,18.93
2019-03-28T09:20:29.793Z,19.02
2019-03-28T09:22:58.765Z,19.38
2019-03-28T09:25:28.004Z,20.04
2019-03-28T09:27:56.855Z,18.74
2019-03-28T09:30:47.518Z,20.28
2019-03-28T09:33:07.650Z,20.87
2019-03-28T09:35:36.797Z,20.87
2019-03-28T09:38:05.418Z,20.69
2019-03-28T09:40:34.861Z,20.61
2019-03-28T09:43:04.015Z,21.74
2019-03-28T09:45:33.169Z,20.99
2019-03-28T09:48:02.499Z,19.47
2019-03-28T09:50:32.054Z,18.45
2019-03-28T09:53:01.282Z,17.90
2019-03-28T09:55:30.731Z,17.46
2019-03-28T09:57:59.830Z,17.87
2019-03-28T10:00:32.451Z,17.70
2019-03-28T10:03:00.478Z,18.24
2019-03-28T10:05:29.867Z,19.27
2019-03-28T10:07:59.321Z,19.18
2019-03-28T10:10:28.644Z,20.22
2019-03-28T10:12:57.872Z,21.10
2019-03-28T10:15:27.248Z,20.42
2019-03-28T10:17:56.475Z,18.98
2019-03-28T10:20:25.618Z,18.11
2019-03-28T10:22:55.379Z,19.87
2019-03-28T10:25:24.375Z,20.14
2019-03-28T10:27:53.548Z,21.34
2019-03-28T10:30:28.097Z,21.34
2019-03-28T10:32:57.207Z,22.94
2019-03-28T10:35:29.548Z,22.67
2019-03-28T10:37:59.000Z,22.17
2019-03-28T10:40:28.335Z,22.13
2019-03-28T10:42:57.588Z,21.77
2019-03-28T10:45:26.722Z,20.88
2019-03-28T10:47:56.007Z,21.22
2019-03-28T10:50:39.820Z,20.48
2019-03-28T10:52:56.357Z,21.45
2019-03-28T10:55:25.367Z,20.91
2019-03-28T10:57:54.974Z,22.18
2019-03-28T11:00:25.244Z,23.45
2019-03-28T11:02:54.805Z,23.73
2019-03-28T11:05:23.488Z,24.10
2019-03-28T11:07:52.801Z,22.53
2019-03-28T11:10:22.106Z,23.68
2019-03-28T11:12:51.324Z,22.23
2019-03-28T11:15:20.642Z,26.70
2019-03-28T11:17:49.931Z,29.48
2019-03-28T11:20:19.588Z,29.46
2019-03-28T11:22:48.804Z,24.38
2019-03-28T11:25:18.058Z,27.10
2019-03-28T11:27:47.684Z,28.36
2019-03-28T11:30:18.500Z,25.93
2019-03-28T11:32:47.866Z,24.91
2019-03-28T11:35:17.136Z,27.98
2019-03-28T11:37:47.383Z,29.00
2019-03-28T11:40:17.167Z,28.94
2019-03-28T11:42:46.486Z,29.53
2019-03-28T11:45:15.825Z,27.64
2019-03-28T11:47:45.130Z,27.33
2019-03-28T11:50:17.102Z,27.90
2019-03-28T11:52:45.205Z,27.06
2019-03-28T11:55:14.584Z,28.29
2019-03-28T11:57:44.120Z,27.18
2019-03-28T12:00:16.454Z,26.98
2019-03-28T12:02:45.910Z,26.23
2019-03-28T12:05:15.853Z,25.24
2019-03-28T12:07:45.211Z,24.81
2019-03-28T12:10:14.638Z,27.04
2019-03-28T12:12:44.078Z,24.52
2019-03-28T12:15:13.642Z,28.77
2019-03-28T12:17:43.391Z,31.15
2019-03-28T12:20:12.538Z,31.00
2019-03-28T12:22:42.765Z,27.16
2019-03-28T12:25:12.376Z,28.68
2019-03-28T12:27:41.608Z,29.13
2019-03-28T12:30:15.777Z,28.57
2019-03-28T12:32:43.484Z,28.58
2019-03-28T12:35:13.174Z,26.66
2019-03-28T12:37:42.522Z,28.90
2019-03-28T12:40:11.903Z,25.59
2019-03-28T12:42:41.412Z,28.73
2019-03-28T12:45:15.065Z,26.87
2019-03-28T12:47:44.651Z,26.12
2019-03-28T12:50:15.017Z,26.48
2019-03-28T12:52:45.020Z,29.11
2019-03-28T12:55:14.138Z,23.38
2019-03-28T12:57:43.775Z,24.38
2019-03-28T13:00:14.271Z,24.74
2019-03-28T13:02:43.762Z,23.71
2019-03-28T13:05:13.265Z,23.45
2019-03-28T13:07:42.582Z,22.84
2019-03-28T13:10:12.160Z,25.60
2019-03-28T13:12:41.928Z,24.42
2019-03-28T13:15:11.168Z,21.57
2019-03-28T13:17:39.966Z,20.98
2019-03-28T13:20:09.849Z,19.84
2019-03-28T13:22:39.043Z,19.81
2019-03-28T13:25:08.489Z,20.79
2019-03-28T13:27:38.010Z,19.83
2019-03-28T13:30:10.794Z,20.22
2019-03-28T13:32:42.240Z,20.12
2019-03-28T13:35:11.678Z,19.57
2019-03-28T13:37:40.256Z,19.34
2019-03-28T13:40:09.856Z,18.78
2019-03-28T13:42:39.463Z,18.78
2019-03-28T13:45:12.043Z,19.27
2019-03-28T13:47:41.595Z,19.87
2019-03-28T13:50:11.971Z,19.18
2019-03-28T13:52:40.863Z,19.92
2019-03-28T13:55:10.372Z,18.26
2019-03-28T13:57:39.633Z,17.44
2019-03-28T14:00:09.648Z,17.98
2019-03-28T14:02:38.953Z,17.82
2019-03-28T14:05:09.131Z,18.49
2019-03-28T14:07:38.276Z,18.79
2019-03-28T14:10:08.714Z,19.07
2019-03-28T14:12:38.167Z,19.09
2019-03-28T14:15:07.796Z,19.30
2019-03-28T14:17:36.819Z,18.64
2019-03-28T14:20:08.949Z,17.11
2019-03-28T14:22:38.623Z,17.29
2019-03-28T14:25:07.901Z,17.61
2019-03-28T14:27:37.582Z,17.41
2019-03-28T14:30:09.692Z,16.94
2019-03-28T14:32:52.115Z,17.48
2019-03-28T14:35:09.572Z,17.70
2019-03-28T14:37:40.750Z,16.87
2019-03-28T14:40:10.267Z,17.10
2019-03-28T14:42:40.727Z,17.45
2019-03-28T14:45:10.055Z,17.75
2019-03-28T14:47:38.947Z,16.85
2019-03-28T14:50:09.767Z,17.02
2019-03-28T14:52:38.841Z,17.10
2019-03-28T14:55:08.685Z,17.72
2019-03-28T14:57:37.641Z,17.15
2019-03-28T15:00:09.979Z,17.04
2019-03-28T15:02:38.735Z,16.89
2019-03-28T15:05:07.839Z,17.37
2019-03-28T15:07:36.903Z,17.02
2019-03-28T15:10:07.227Z,17.01
2019-03-28T15:12:36.592Z,17.02
2019-03-28T15:15:06.383Z,17.28
2019-03-28T15:17:35.345Z,17.36
2019-03-28T15:20:05.933Z,17.32
2019-03-28T15:22:35.595Z,16.45
2019-03-28T15:25:05.901Z,16.64
2019-03-28T15:27:35.426Z,16.58
2019-03-28T15:30:08.380Z,16.48
2019-03-28T15:32:37.434Z,16.63
2019-03-28T15:35:06.574Z,16.69
2019-03-28T15:37:35.521Z,16.37
2019-03-28T15:40:08.496Z,16.09
2019-03-28T15:42:37.631Z,16.41
2019-03-28T15:45:07.417Z,16.26
2019-03-28T15:47:37.181Z,16.19
2019-03-28T15:50:06.742Z,16.01
2019-03-28T15:52:35.752Z,16.10
2019-03-28T15:55:05.701Z,16.27
2019-03-28T15:57:35.785Z,16.22
2019-03-28T16:00:07.555Z,16.27
2019-03-28T16:02:36.135Z,16.27
2019-03-28T16:05:06.223Z,16.06
2019-03-28T16:07:34.925Z,15.91
2019-03-28T16:10:04.794Z,15.53
2019-03-28T16:12:33.814Z,15.53
2019-03-28T16:15:05.350Z,15.57
2019-03-28T16:17:34.103Z,15.39
2019-03-28T16:20:03.380Z,15.57
2019-03-28T16:22:32.881Z,15.59
2019-03-28T16:25:01.743Z,15.82
2019-03-28T16:27:30.958Z,15.47
2019-03-28T16:30:00.027Z,15.64
2019-03-28T16:32:29.532Z,15.36
2019-03-28T16:34:58.807Z,15.48
2019-03-28T16:37:28.455Z,15.47
2019-03-28T16:39:57.277Z,15.35
2019-03-28T16:42:26.481Z,15.30
2019-03-28T16:44:55.528Z,15.38
2019-03-28T16:47:24.262Z,15.28
2019-03-28T16:49:53.129Z,15.22
2019-03-28T16:52:21.725Z,15.33
2019-03-28T16:54:51.044Z,15.37
2019-03-28T16:57:20.669Z,15.29
2019-03-28T16:59:50.228Z,15.27
2019-03-28T17:02:19.383Z,15.26
2019-03-28T17:04:49.709Z,15.33
2019-03-28T17:07:18.841Z,15.28
2019-03-28T17:09:47.858Z,15.15
2019-03-28T17:12:17.121Z,15.00
2019-03-28T17:14:48.085Z,14.86
2019-03-28T17:17:17.676Z,14.95
2019-03-28T17:19:47.136Z,14.89
2019-03-28T17:22:16.797Z,14.75
2019-03-28T17:24:46.367Z,14.72
2019-03-28T17:27:15.213Z,14.78
2019-03-28T17:29:44.671Z,14.80
2019-03-28T17:32:13.567Z,14.62
2019-03-28T17:34:45.824Z,14.65
2019-03-28T17:37:14.022Z,14.64
2019-03-28T17:39:43.352Z,14.56
2019-03-28T17:42:12.411Z,14.51
2019-03-28T17:44:41.525Z,14.38
2019-03-28T17:47:10.752Z,14.44
2019-03-28T17:49:40.607Z,14.52
2019-03-28T17:52:10.130Z,14.51
2019-03-28T17:54:39.337Z,14.20
2019-03-28T17:57:08.480Z,14.32
2019-03-28T17:59:38.254Z,14.22
2019-03-28T18:02:07.274Z,14.30
2019-03-28T18:04:47.421Z,14.14
2019-03-28T18:07:07.750Z,14.07
2019-03-28T18:09:37.740Z,14.04
2019-03-28T18:12:06.825Z,13.99
2019-03-28T18:14:35.863Z,14.04
2019-03-28T18:17:05.395Z,13.96
2019-03-28T18:19:34.953Z,13.99
2019-03-28T18:22:04.297Z,13.86
2019-03-28T18:24:34.478Z,13.79
2019-03-28T18:27:03.825Z,13.92
2019-03-28T18:29:35.835Z,13.88
2019-03-28T18:32:03.635Z,13.82
2019-03-28T18:34:34.748Z,13.79
2019-03-28T18:37:03.948Z,13.61
2019-03-28T18:39:32.759Z,13.65
2019-03-28T18:42:02.343Z,13.74
2019-03-28T18:44:32.046Z,13.63
2019-03-28T18:47:01.188Z,13.49
2019-03-28T18:49:30.961Z,13.66
2019-03-28T18:52:00.797Z,13.51
2019-03-28T18:54:29.778Z,13.41
2019-03-28T18:56:59.151Z,13.42
2019-03-28T18:59:28.066Z,13.37
2019-03-28T19:01:57.496Z,13.51
2019-03-28T19:04:27.517Z,13.52
2019-03-28T19:06:57.739Z,13.52
2019-03-28T19:09:27.501Z,13.57
2019-03-28T19:11:57.130Z,13.59
2019-03-28T19:14:26.411Z,13.52
2019-03-28T19:17:00.912Z,13.52
2019-03-28T19:19:39.264Z,13.52
2019-03-28T19:22:01.172Z,13.58
2019-03-28T19:24:30.030Z,13.31
2019-03-28T19:26:59.118Z,13.28
2019-03-28T19:29:27.921Z,13.33
2019-03-28T19:31:56.917Z,13.31
2019-03-28T19:34:26.076Z,13.36
2019-03-28T19:36:57.017Z,13.14
2019-03-28T19:39:31.669Z,13.23
2019-03-28T19:42:04.236Z,13.28
2019-03-28T19:44:31.987Z,13.29
2019-03-28T19:47:01.383Z,13.30
2019-03-28T19:49:30.847Z,13.27
2019-03-28T19:52:00.327Z,13.24
2019-03-28T19:54:30.066Z,13.34
2019-03-28T19:56:59.926Z,13.38
2019-03-28T19:59:28.721Z,13.25
2019-03-28T20:01:57.520Z,13.16
2019-03-28T20:04:26.772Z,13.08
2019-03-28T20:06:55.589Z,13.11
2019-03-28T20:09:24.575Z,13.03
2019-03-28T20:11:53.406Z,13.03
2019-03-28T20:14:23.528Z,13.01
2019-03-28T20:16:53.792Z,12.96
2019-03-28T20:19:23.334Z,12.79
2019-03-28T20:21:51.975Z,12.76
2019-03-28T20:24:21.324Z,12.77
2019-03-28T20:26:50.013Z,12.87
2019-03-28T20:29:18.967Z,12.86
2019-03-28T20:31:48.281Z,12.72
2019-03-28T20:34:17.070Z,12.80
2019-03-28T20:36:46.509Z,12.77
2019-03-28T20:39:15.489Z,12.78
2019-03-28T20:41:44.546Z,12.72
2019-03-28T20:44:14.164Z,12.64
2019-03-28T20:46:43.178Z,12.64
2019-03-28T20:49:12.317Z,12.68
2019-03-28T20:51:41.691Z,12.49
2019-03-28T20:54:11.093Z,12.38
2019-03-28T20:56:40.017Z,12.41
2019-03-28T20:59:09.272Z,12.56
2019-03-28T21:01:38.145Z,12.49
2019-03-28T21:04:08.764Z,12.38
2019-03-28T21:06:38.447Z,12.50
2019-03-28T21:09:08.408Z,12.51
2019-03-28T21:11:38.922Z,12.52
2019-03-28T21:14:07.888Z,12.52
2019-03-28T21:16:38.060Z,12.46
2019-03-28T21:19:07.689Z,12.36
2019-03-28T21:21:37.184Z,12.40
2019-03-28T21:24:06.208Z,12.38
2019-03-28T21:26:35.274Z,12.34
2019-03-28T21:29:04.618Z,12.34
2019-03-28T21:31:34.460Z,12.38
2019-03-28T21:34:03.554Z,12.27
2019-03-28T21:36:32.944Z,12.20
2019-03-28T21:39:02.065Z,12.19
2019-03-28T21:41:31.356Z,12.20
2019-03-28T21:44:00.373Z,12.22
2019-03-28T21:46:29.511Z,12.15
2019-03-28T21:48:59.250Z,12.13
2019-03-28T21:51:28.243Z,12.16
2019-03-28T21:53:58.284Z,12.06
2019-03-28T21:56:28.213Z,11.99
2019-03-28T21:58:58.161Z,12.00
2019-03-28T22:01:27.917Z,12.04
2019-03-28T22:03:57.660Z,12.03
2019-03-28T22:06:27.304Z,11.89
2019-03-28T22:08:56.792Z,11.84
2019-03-28T22:11:26.278Z,11.78
2019-03-28T22:13:55.902Z,11.80
2019-03-28T22:16:25.639Z,11.84
2019-03-28T22:18:55.014Z,11.83
2019-03-28T22:21:27.252Z,11.86
2019-03-28T22:23:55.330Z,11.72
2019-03-28T22:26:24.614Z,11.79
2019-03-28T22:28:54.085Z,11.89
2019-03-28T22:31:23.678Z,11.78
2019-03-28T22:33:52.718Z,11.83
2019-03-28T22:36:22.066Z,11.86
2019-03-28T22:38:51.209Z,11.91
2019-03-28T22:41:20.368Z,11.84
2019-03-28T22:43:49.823Z,11.78
2019-03-28T22:46:19.598Z,11.74
2019-03-28T22:48:48.857Z,11.74
2019-03-28T22:51:17.852Z,11.70
2019-03-28T22:53:47.274Z,11.68
2019-03-28T22:56:16.699Z,11.68
2019-03-28T22:58:45.674Z,11.67
2019-03-28T23:01:15.405Z,11.55
2019-03-28T23:03:44.601Z,11.55
2019-03-28T23:06:14.093Z,11.55
2019-03-28T23:08:43.235Z,11.38
2019-03-28T23:11:13.860Z,11.43
2019-03-28T23:13:43.301Z,11.46
2019-03-28T23:16:12.661Z,11.38
2019-03-28T23:18:42.022Z,11.19
2019-03-28T23:21:11.572Z,10.96
2019-03-28T23:23:40.954Z,11.00
2019-03-28T23:26:10.792Z,11.04
2019-03-28T23:28:40.100Z,10.92
2019-03-28T23:31:09.709Z,11.07
2019-03-28T23:33:38.987Z,11.13
2019-03-28T23:36:08.429Z,10.87
2019-03-28T23:38:38.062Z,11.01
2019-03-28T23:41:07.507Z,10.99
2019-03-28T23:43:36.725Z,11.00
2019-03-28T23:46:06.322Z,11.04
2019-03-28T23:48:35.579Z,10.94
2019-03-28T23:51:05.288Z,10.89
2019-03-28T23:53:36.965Z,10.89
2019-03-28T23:56:06.318Z,10.86
2019-03-28T23:58:35.646Z,10.86
